sensor_id;sensor_type;location;lat;lon;timestamp;P1;durP1;ratioP1;P2;durP2;ratioP2
43835;SDS011;39345;43.964;25.340;2023-02-11T00:00:56;66.75;;;27.50;;
43835;SDS011;39345;43.964;25.340;2023-02-11T00:03:24;67.53;;;29.08;;
43835;SDS011;39345;43.964;25.340;2023-02-11T00:05:56;64.55;;;27.65;;
43835;SDS011;39345;43.964;25.340;2023-02-11T00:08:24;57.05;;;26.35;;
43835;SDS011;39345;43.964;25.340;2023-02-11T00:10:52;65.47;;;27.27;;
43835;SDS011;39345;43.964;25.340;2023-02-11T00:13:20;63.28;;;25.85;;
43835;SDS011;39345;43.964;25.340;2023-02-11T00:15:47;58.35;;;24.92;;
43835;SDS011;39345;43.964;25.340;2023-02-11T00:18:15;55.42;;;24.83;;
43835;SDS011;39345;43.964;25.340;2023-02-11T00:20:43;60.28;;;24.70;;
43835;SDS011;39345;43.964;25.340;2023-02-11T00:23:10;57.72;;;24.27;;
43835;SDS011;39345;43.964;25.340;2023-02-11T00:25:39;53.38;;;23.80;;
43835;SDS011;39345;43.964;25.340;2023-02-11T00:28:07;52.75;;;23.05;;
43835;SDS011;39345;43.964;25.340;2023-02-11T00:30:35;49.65;;;22.63;;
43835;SDS011;39345;43.964;25.340;2023-02-11T00:33:03;53.53;;;23.25;;
43835;SDS011;39345;43.964;25.340;2023-02-11T00:35:31;51.83;;;22.77;;
43835;SDS011;39345;43.964;25.340;2023-02-11T00:37:58;51.35;;;22.98;;
43835;SDS011;39345;43.964;25.340;2023-02-11T00:40:26;49.47;;;22.52;;
43835;SDS011;39345;43.964;25.340;2023-02-11T00:42:53;48.65;;;22.27;;
43835;SDS011;39345;43.964;25.340;2023-02-11T00:45:23;48.53;;;22.65;;
43835;SDS011;39345;43.964;25.340;2023-02-11T00:47:50;48.53;;;21.88;;
43835;SDS011;39345;43.964;25.340;2023-02-11T00:50:18;51.90;;;21.42;;
43835;SDS011;39345;43.964;25.340;2023-02-11T00:52:46;46.63;;;20.77;;
43835;SDS011;39345;43.964;25.340;2023-02-11T00:55:14;56.85;;;23.52;;
43835;SDS011;39345;43.964;25.340;2023-02-11T00:57:42;54.95;;;24.02;;
43835;SDS011;39345;43.964;25.340;2023-02-11T01:00:10;48.55;;;22.05;;
43835;SDS011;39345;43.964;25.340;2023-02-11T01:02:38;46.30;;;20.65;;
43835;SDS011;39345;43.964;25.340;2023-02-11T01:05:05;44.33;;;21.45;;
43835;SDS011;39345;43.964;25.340;2023-02-11T01:07:33;48.03;;;21.15;;
43835;SDS011;39345;43.964;25.340;2023-02-11T01:10:00;49.40;;;21.80;;
43835;SDS011;39345;43.964;25.340;2023-02-11T01:12:29;49.35;;;21.63;;
43835;SDS011;39345;43.964;25.340;2023-02-11T01:15:01;50.33;;;21.75;;
43835;SDS011;39345;43.964;25.340;2023-02-11T01:17:30;50.72;;;21.42;;
43835;SDS011;39345;43.964;25.340;2023-02-11T01:19:57;47.60;;;20.52;;
43835;SDS011;39345;43.964;25.340;2023-02-11T01:22:25;48.00;;;23.23;;
43835;SDS011;39345;43.964;25.340;2023-02-11T01:24:52;46.78;;;21.55;;
43835;SDS011;39345;43.964;25.340;2023-02-11T01:27:20;43.88;;;20.92;;
43835;SDS011;39345;43.964;25.340;2023-02-11T01:29:47;48.60;;;21.65;;
43835;SDS011;39345;43.964;25.340;2023-02-11T01:32:15;50.28;;;21.95;;
43835;SDS011;39345;43.964;25.340;2023-02-11T01:34:42;45.70;;;21.92;;
43835;SDS011;39345;43.964;25.340;2023-02-11T01:37:12;50.70;;;23.00;;
43835;SDS011;39345;43.964;25.340;2023-02-11T01:39:39;48.95;;;21.63;;
43835;SDS011;39345;43.964;25.340;2023-02-11T01:42:10;49.60;;;21.02;;
43835;SDS011;39345;43.964;25.340;2023-02-11T01:44:38;44.00;;;21.98;;
43835;SDS011;39345;43.964;25.340;2023-02-11T01:47:05;47.17;;;22.60;;
43835;SDS011;39345;43.964;25.340;2023-02-11T01:49:34;47.60;;;21.77;;
43835;SDS011;39345;43.964;25.340;2023-02-11T01:54:34;46.75;;;20.85;;
43835;SDS011;39345;43.964;25.340;2023-02-11T01:57:23;48.50;;;21.23;;
43835;SDS011;39345;43.964;25.340;2023-02-11T02:10:37;43.10;;;20.23;;
43835;SDS011;39345;43.964;25.340;2023-02-11T02:13:07;48.35;;;20.92;;
43835;SDS011;39345;43.964;25.340;2023-02-11T02:15:35;54.88;;;22.33;;
43835;SDS011;39345;43.964;25.340;2023-02-11T02:34:05;49.83;;;22.38;;
43835;SDS011;39345;43.964;25.340;2023-02-11T02:36:36;47.03;;;20.80;;
43835;SDS011;39345;43.964;25.340;2023-02-11T02:39:07;43.28;;;20.08;;
43835;SDS011;39345;43.964;25.340;2023-02-11T02:41:35;42.25;;;20.40;;
43835;SDS011;39345;43.964;25.340;2023-02-11T02:44:04;45.15;;;20.67;;
43835;SDS011;39345;43.964;25.340;2023-02-11T02:46:32;52.30;;;21.98;;
43835;SDS011;39345;43.964;25.340;2023-02-11T02:48:59;48.63;;;20.88;;
43835;SDS011;39345;43.964;25.340;2023-02-11T02:51:49;47.17;;;20.80;;
43835;SDS011;39345;43.964;25.340;2023-02-11T03:07:39;42.35;;;20.13;;
43835;SDS011;39345;43.964;25.340;2023-02-11T03:10:26;46.97;;;20.98;;
43835;SDS011;39345;43.964;25.340;2023-02-11T03:12:54;45.33;;;19.38;;
43835;SDS011;39345;43.964;25.340;2023-02-11T03:15:23;46.10;;;20.67;;
43835;SDS011;39345;43.964;25.340;2023-02-11T03:17:52;44.17;;;19.30;;
43835;SDS011;39345;43.964;25.340;2023-02-11T03:20:21;44.53;;;19.88;;
43835;SDS011;39345;43.964;25.340;2023-02-11T03:22:53;43.60;;;20.52;;
43835;SDS011;39345;43.964;25.340;2023-02-11T03:25:27;42.88;;;20.02;;
43835;SDS011;39345;43.964;25.340;2023-02-11T03:30:43;42.30;;;20.35;;
43835;SDS011;39345;43.964;25.340;2023-02-11T03:33:26;48.67;;;21.35;;
43835;SDS011;39345;43.964;25.340;2023-02-11T03:35:56;44.92;;;20.25;;
43835;SDS011;39345;43.964;25.340;2023-02-11T03:38:43;45.33;;;20.85;;
43835;SDS011;39345;43.964;25.340;2023-02-11T03:41:12;45.83;;;19.50;;
43835;SDS011;39345;43.964;25.340;2023-02-11T03:43:45;43.65;;;19.83;;
43835;SDS011;39345;43.964;25.340;2023-02-11T03:46:15;47.92;;;20.25;;
43835;SDS011;39345;43.964;25.340;2023-02-11T03:48:45;48.40;;;21.45;;
43835;SDS011;39345;43.964;25.340;2023-02-11T03:51:14;44.22;;;19.83;;
43835;SDS011;39345;43.964;25.340;2023-02-11T03:53:42;46.28;;;20.73;;
43835;SDS011;39345;43.964;25.340;2023-02-11T03:56:15;48.05;;;20.75;;
43835;SDS011;39345;43.964;25.340;2023-02-11T03:58:44;46.97;;;21.77;;
43835;SDS011;39345;43.964;25.340;2023-02-11T04:01:11;48.08;;;20.75;;
43835;SDS011;39345;43.964;25.340;2023-02-11T04:03:39;46.35;;;20.55;;
43835;SDS011;39345;43.964;25.340;2023-02-11T04:06:07;47.58;;;20.95;;
43835;SDS011;39345;43.964;25.340;2023-02-11T04:08:34;44.17;;;20.27;;
43835;SDS011;39345;43.964;25.340;2023-02-11T04:11:02;41.55;;;21.10;;
43835;SDS011;39345;43.964;25.340;2023-02-11T04:13:29;44.83;;;20.00;;
43835;SDS011;39345;43.964;25.340;2023-02-11T04:15:57;44.38;;;20.45;;
43835;SDS011;39345;43.964;25.340;2023-02-11T04:18:24;45.70;;;20.48;;
43835;SDS011;39345;43.964;25.340;2023-02-11T04:20:52;40.42;;;19.33;;
43835;SDS011;39345;43.964;25.340;2023-02-11T04:23:19;43.80;;;19.63;;
43835;SDS011;39345;43.964;25.340;2023-02-11T04:25:47;43.80;;;20.35;;
43835;SDS011;39345;43.964;25.340;2023-02-11T04:28:15;41.75;;;19.17;;
43835;SDS011;39345;43.964;25.340;2023-02-11T04:30:43;42.95;;;19.73;;
43835;SDS011;39345;43.964;25.340;2023-02-11T04:33:10;43.15;;;19.88;;
43835;SDS011;39345;43.964;25.340;2023-02-11T04:35:38;42.22;;;19.73;;
43835;SDS011;39345;43.964;25.340;2023-02-11T04:38:05;44.22;;;19.75;;
43835;SDS011;39345;43.964;25.340;2023-02-11T04:40:33;47.13;;;21.35;;
43835;SDS011;39345;43.964;25.340;2023-02-11T04:43:00;42.67;;;20.45;;
43835;SDS011;39345;43.964;25.340;2023-02-11T04:45:27;41.50;;;19.23;;
43835;SDS011;39345;43.964;25.340;2023-02-11T04:47:55;40.72;;;19.15;;
43835;SDS011;39345;43.964;25.340;2023-02-11T04:50:22;44.22;;;19.67;;
43835;SDS011;39345;43.964;25.340;2023-02-11T04:52:50;80.03;;;30.40;;
43835;SDS011;39345;43.964;25.340;2023-02-11T04:55:17;62.88;;;25.60;;
43835;SDS011;39345;43.964;25.340;2023-02-11T04:57:45;45.63;;;19.92;;
43835;SDS011;39345;43.964;25.340;2023-02-11T05:00:12;50.20;;;22.35;;
43835;SDS011;39345;43.964;25.340;2023-02-11T05:02:40;49.05;;;22.33;;
43835;SDS011;39345;43.964;25.340;2023-02-11T05:05:07;41.35;;;20.02;;
43835;SDS011;39345;43.964;25.340;2023-02-11T05:07:35;45.05;;;20.50;;
43835;SDS011;39345;43.964;25.340;2023-02-11T05:10:03;41.60;;;20.73;;
43835;SDS011;39345;43.964;25.340;2023-02-11T05:12:30;41.58;;;20.00;;
43835;SDS011;39345;43.964;25.340;2023-02-11T05:14:58;41.80;;;20.30;;
43835;SDS011;39345;43.964;25.340;2023-02-11T05:17:25;45.60;;;20.38;;
43835;SDS011;39345;43.964;25.340;2023-02-11T05:19:53;41.08;;;19.75;;
43835;SDS011;39345;43.964;25.340;2023-02-11T05:22:20;43.33;;;19.60;;
43835;SDS011;39345;43.964;25.340;2023-02-11T05:24:48;39.58;;;18.25;;
43835;SDS011;39345;43.964;25.340;2023-02-11T05:27:15;43.03;;;21.90;;
43835;SDS011;39345;43.964;25.340;2023-02-11T05:29:43;45.30;;;21.70;;
43835;SDS011;39345;43.964;25.340;2023-02-11T05:32:10;41.97;;;20.00;;
43835;SDS011;39345;43.964;25.340;2023-02-11T05:34:38;45.38;;;21.38;;
43835;SDS011;39345;43.964;25.340;2023-02-11T05:37:05;43.80;;;20.98;;
43835;SDS011;39345;43.964;25.340;2023-02-11T05:39:33;40.30;;;20.33;;
43835;SDS011;39345;43.964;25.340;2023-02-11T05:42:00;43.38;;;21.08;;
43835;SDS011;39345;43.964;25.340;2023-02-11T05:44:28;57.53;;;24.20;;
43835;SDS011;39345;43.964;25.340;2023-02-11T05:46:55;58.78;;;26.40;;
43835;SDS011;39345;43.964;25.340;2023-02-11T05:49:23;100.90;;;39.33;;
43835;SDS011;39345;43.964;25.340;2023-02-11T05:51:52;121.00;;;47.85;;
43835;SDS011;39345;43.964;25.340;2023-02-11T05:54:19;120.25;;;45.28;;
43835;SDS011;39345;43.964;25.340;2023-02-11T05:56:47;109.70;;;42.97;;
43835;SDS011;39345;43.964;25.340;2023-02-11T05:59:14;98.97;;;40.75;;
43835;SDS011;39345;43.964;25.340;2023-02-11T06:01:42;87.10;;;36.13;;
43835;SDS011;39345;43.964;25.340;2023-02-11T06:04:12;48.90;;;22.70;;
43835;SDS011;39345;43.964;25.340;2023-02-11T06:06:39;52.70;;;25.85;;
43835;SDS011;39345;43.964;25.340;2023-02-11T06:09:07;50.22;;;25.23;;
43835;SDS011;39345;43.964;25.340;2023-02-11T06:11:35;45.20;;;21.08;;
43835;SDS011;39345;43.964;25.340;2023-02-11T06:14:03;44.20;;;21.70;;
43835;SDS011;39345;43.964;25.340;2023-02-11T06:16:31;43.47;;;20.63;;
43835;SDS011;39345;43.964;25.340;2023-02-11T06:18:58;51.55;;;26.02;;
43835;SDS011;39345;43.964;25.340;2023-02-11T06:21:26;46.30;;;23.70;;
43835;SDS011;39345;43.964;25.340;2023-02-11T06:24:09;45.33;;;23.85;;
43835;SDS011;39345;43.964;25.340;2023-02-11T06:26:36;46.92;;;23.13;;
43835;SDS011;39345;43.964;25.340;2023-02-11T06:29:04;48.38;;;25.48;;
43835;SDS011;39345;43.964;25.340;2023-02-11T06:31:38;45.15;;;25.58;;
43835;SDS011;39345;43.964;25.340;2023-02-11T06:34:09;48.20;;;26.15;;
43835;SDS011;39345;43.964;25.340;2023-02-11T06:36:39;40.58;;;23.02;;
43835;SDS011;39345;43.964;25.340;2023-02-11T06:39:08;41.65;;;22.67;;
43835;SDS011;39345;43.964;25.340;2023-02-11T06:41:36;42.63;;;23.98;;
43835;SDS011;39345;43.964;25.340;2023-02-11T06:44:04;42.05;;;23.58;;
43835;SDS011;39345;43.964;25.340;2023-02-11T06:46:32;44.58;;;24.30;;
43835;SDS011;39345;43.964;25.340;2023-02-11T06:49:00;42.50;;;22.63;;
43835;SDS011;39345;43.964;25.340;2023-02-11T06:51:27;42.20;;;23.67;;
43835;SDS011;39345;43.964;25.340;2023-02-11T06:53:55;39.42;;;23.27;;
43835;SDS011;39345;43.964;25.340;2023-02-11T06:56:23;38.17;;;21.90;;
43835;SDS011;39345;43.964;25.340;2023-02-11T06:58:53;34.28;;;21.15;;
43835;SDS011;39345;43.964;25.340;2023-02-11T07:01:21;36.47;;;22.42;;
43835;SDS011;39345;43.964;25.340;2023-02-11T07:03:49;36.20;;;22.77;;
43835;SDS011;39345;43.964;25.340;2023-02-11T07:06:18;34.72;;;21.33;;
43835;SDS011;39345;43.964;25.340;2023-02-11T07:08:46;36.60;;;20.98;;
43835;SDS011;39345;43.964;25.340;2023-02-11T07:11:15;38.53;;;22.33;;
43835;SDS011;39345;43.964;25.340;2023-02-11T07:13:42;39.28;;;21.17;;
43835;SDS011;39345;43.964;25.340;2023-02-11T07:16:11;34.75;;;20.63;;
43835;SDS011;39345;43.964;25.340;2023-02-11T07:18:39;36.22;;;20.00;;
43835;SDS011;39345;43.964;25.340;2023-02-11T07:21:08;39.17;;;20.77;;
43835;SDS011;39345;43.964;25.340;2023-02-11T07:23:35;38.03;;;19.95;;
43835;SDS011;39345;43.964;25.340;2023-02-11T07:26:04;40.28;;;20.90;;
43835;SDS011;39345;43.964;25.340;2023-02-11T07:28:32;37.47;;;20.52;;
43835;SDS011;39345;43.964;25.340;2023-02-11T07:33:36;43.47;;;20.10;;
43835;SDS011;39345;43.964;25.340;2023-02-11T07:36:05;40.13;;;19.85;;
43835;SDS011;39345;43.964;25.340;2023-02-11T07:38:33;43.85;;;20.77;;
43835;SDS011;39345;43.964;25.340;2023-02-11T07:41:02;40.13;;;21.10;;
43835;SDS011;39345;43.964;25.340;2023-02-11T07:43:30;39.03;;;20.08;;
43835;SDS011;39345;43.964;25.340;2023-02-11T07:45:58;41.10;;;21.70;;
43835;SDS011;39345;43.964;25.340;2023-02-11T07:48:25;41.92;;;21.70;;
43835;SDS011;39345;43.964;25.340;2023-02-11T07:50:53;38.85;;;20.13;;
43835;SDS011;39345;43.964;25.340;2023-02-11T07:53:20;42.90;;;20.42;;
43835;SDS011;39345;43.964;25.340;2023-02-11T07:55:47;41.45;;;20.60;;
43835;SDS011;39345;43.964;25.340;2023-02-11T07:58:18;37.38;;;20.27;;
43835;SDS011;39345;43.964;25.340;2023-02-11T08:00:46;39.90;;;20.55;;
43835;SDS011;39345;43.964;25.340;2023-02-11T08:03:14;37.83;;;19.92;;
43835;SDS011;39345;43.964;25.340;2023-02-11T08:05:41;42.95;;;22.77;;
43835;SDS011;39345;43.964;25.340;2023-02-11T08:08:09;46.40;;;22.63;;
43835;SDS011;39345;43.964;25.340;2023-02-11T08:10:36;45.67;;;23.23;;
43835;SDS011;39345;43.964;25.340;2023-02-11T08:13:04;41.20;;;20.33;;
43835;SDS011;39345;43.964;25.340;2023-02-11T08:15:31;37.58;;;22.00;;
43835;SDS011;39345;43.964;25.340;2023-02-11T08:17:59;42.20;;;21.80;;
43835;SDS011;39345;43.964;25.340;2023-02-11T08:20:26;40.45;;;20.70;;
43835;SDS011;39345;43.964;25.340;2023-02-11T08:22:54;39.55;;;21.63;;
43835;SDS011;39345;43.964;25.340;2023-02-11T08:25:22;39.38;;;20.77;;
43835;SDS011;39345;43.964;25.340;2023-02-11T08:27:49;47.45;;;22.25;;
43835;SDS011;39345;43.964;25.340;2023-02-11T08:30:16;43.00;;;20.67;;
43835;SDS011;39345;43.964;25.340;2023-02-11T08:32:44;37.70;;;21.05;;
43835;SDS011;39345;43.964;25.340;2023-02-11T08:35:11;39.97;;;22.08;;
43835;SDS011;39345;43.964;25.340;2023-02-11T08:37:39;49.80;;;23.42;;
43835;SDS011;39345;43.964;25.340;2023-02-11T08:40:06;43.15;;;21.50;;
43835;SDS011;39345;43.964;25.340;2023-02-11T08:42:34;40.80;;;22.50;;
43835;SDS011;39345;43.964;25.340;2023-02-11T08:45:02;40.58;;;21.88;;
43835;SDS011;39345;43.964;25.340;2023-02-11T08:47:30;40.40;;;22.10;;
43835;SDS011;39345;43.964;25.340;2023-02-11T08:49:58;38.80;;;21.52;;
43835;SDS011;39345;43.964;25.340;2023-02-11T08:52:25;40.63;;;21.65;;
43835;SDS011;39345;43.964;25.340;2023-02-11T08:54:53;41.70;;;21.75;;
43835;SDS011;39345;43.964;25.340;2023-02-11T08:57:20;43.75;;;21.27;;
43835;SDS011;39345;43.964;25.340;2023-02-11T08:59:48;35.90;;;20.08;;
43835;SDS011;39345;43.964;25.340;2023-02-11T09:02:15;32.13;;;18.45;;
43835;SDS011;39345;43.964;25.340;2023-02-11T09:04:43;38.30;;;19.08;;
43835;SDS011;39345;43.964;25.340;2023-02-11T09:07:10;33.53;;;18.25;;
43835;SDS011;39345;43.964;25.340;2023-02-11T09:09:38;33.53;;;18.85;;
43835;SDS011;39345;43.964;25.340;2023-02-11T09:12:05;35.20;;;18.50;;
43835;SDS011;39345;43.964;25.340;2023-02-11T09:14:35;34.45;;;18.00;;
43835;SDS011;39345;43.964;25.340;2023-02-11T09:17:03;30.58;;;17.23;;
43835;SDS011;39345;43.964;25.340;2023-02-11T09:19:31;30.77;;;17.65;;
43835;SDS011;39345;43.964;25.340;2023-02-11T09:21:58;36.85;;;18.42;;
43835;SDS011;39345;43.964;25.340;2023-02-11T09:24:27;32.58;;;17.65;;
43835;SDS011;39345;43.964;25.340;2023-02-11T09:26:54;37.05;;;17.17;;
43835;SDS011;39345;43.964;25.340;2023-02-11T09:29:22;29.90;;;17.10;;
43835;SDS011;39345;43.964;25.340;2023-02-11T09:31:49;32.70;;;17.15;;
43835;SDS011;39345;43.964;25.340;2023-02-11T09:34:18;31.83;;;17.48;;
43835;SDS011;39345;43.964;25.340;2023-02-11T09:36:46;35.10;;;17.27;;
43835;SDS011;39345;43.964;25.340;2023-02-11T09:39:15;31.25;;;16.45;;
43835;SDS011;39345;43.964;25.340;2023-02-11T09:44:19;31.65;;;16.95;;
43835;SDS011;39345;43.964;25.340;2023-02-11T09:46:58;29.50;;;15.90;;
43835;SDS011;39345;43.964;25.340;2023-02-11T09:49:38;28.88;;;15.00;;
43835;SDS011;39345;43.964;25.340;2023-02-11T09:52:12;35.80;;;16.27;;
43835;SDS011;39345;43.964;25.340;2023-02-11T09:54:57;29.55;;;15.50;;
43835;SDS011;39345;43.964;25.340;2023-02-11T09:57:30;28.02;;;15.48;;
43835;SDS011;39345;43.964;25.340;2023-02-11T09:59:59;31.27;;;15.32;;
43835;SDS011;39345;43.964;25.340;2023-02-11T10:05:37;33.00;;;14.82;;
43835;SDS011;39345;43.964;25.340;2023-02-11T10:08:08;30.83;;;16.50;;
43835;SDS011;39345;43.964;25.340;2023-02-11T10:10:52;27.25;;;14.60;;
43835;SDS011;39345;43.964;25.340;2023-02-11T10:23:45;23.85;;;13.80;;
43835;SDS011;39345;43.964;25.340;2023-02-11T10:26:15;31.05;;;14.88;;
43835;SDS011;39345;43.964;25.340;2023-02-11T10:28:44;24.90;;;14.52;;
43835;SDS011;39345;43.964;25.340;2023-02-11T10:31:20;24.77;;;13.63;;
43835;SDS011;39345;43.964;25.340;2023-02-11T10:33:57;25.73;;;15.07;;
43835;SDS011;39345;43.964;25.340;2023-02-11T10:36:27;27.63;;;14.55;;
43835;SDS011;39345;43.964;25.340;2023-02-11T10:38:57;27.75;;;14.85;;
43835;SDS011;39345;43.964;25.340;2023-02-11T10:41:35;27.73;;;14.73;;
43835;SDS011;39345;43.964;25.340;2023-02-11T10:44:05;26.45;;;14.75;;
43835;SDS011;39345;43.964;25.340;2023-02-11T10:46:33;28.85;;;15.75;;
43835;SDS011;39345;43.964;25.340;2023-02-11T10:49:05;28.02;;;15.77;;
43835;SDS011;39345;43.964;25.340;2023-02-11T10:51:33;25.60;;;14.77;;
43835;SDS011;39345;43.964;25.340;2023-02-11T10:56:49;24.98;;;13.75;;
43835;SDS011;39345;43.964;25.340;2023-02-11T10:59:35;29.60;;;15.38;;
43835;SDS011;39345;43.964;25.340;2023-02-11T11:05:16;86.88;;;39.13;;
43835;SDS011;39345;43.964;25.340;2023-02-11T11:07:50;29.02;;;16.02;;
43835;SDS011;39345;43.964;25.340;2023-02-11T11:10:26;24.85;;;14.00;;
43835;SDS011;39345;43.964;25.340;2023-02-11T11:15:25;28.38;;;15.07;;
43835;SDS011;39345;43.964;25.340;2023-02-11T11:18:13;23.73;;;13.50;;
43835;SDS011;39345;43.964;25.340;2023-02-11T11:23:22;24.25;;;14.27;;
43835;SDS011;39345;43.964;25.340;2023-02-11T11:28:30;26.02;;;13.73;;
43835;SDS011;39345;43.964;25.340;2023-02-11T11:31:01;24.52;;;13.18;;
43835;SDS011;39345;43.964;25.340;2023-02-11T11:33:30;22.65;;;13.27;;
43835;SDS011;39345;43.964;25.340;2023-02-11T11:38:28;26.00;;;13.70;;
43835;SDS011;39345;43.964;25.340;2023-02-11T11:41:20;21.48;;;13.50;;
43835;SDS011;39345;43.964;25.340;2023-02-11T11:44:02;24.00;;;13.30;;
43835;SDS011;39345;43.964;25.340;2023-02-11T11:46:32;21.92;;;12.50;;
43835;SDS011;39345;43.964;25.340;2023-02-11T11:49:06;24.73;;;13.63;;
43835;SDS011;39345;43.964;25.340;2023-02-11T11:51:36;22.48;;;14.25;;
43835;SDS011;39345;43.964;25.340;2023-02-11T11:54:07;24.10;;;13.43;;
43835;SDS011;39345;43.964;25.340;2023-02-11T11:56:51;26.60;;;13.85;;
43835;SDS011;39345;43.964;25.340;2023-02-11T11:59:20;25.77;;;14.10;;
43835;SDS011;39345;43.964;25.340;2023-02-11T12:07:06;23.67;;;14.38;;
43835;SDS011;39345;43.964;25.340;2023-02-11T12:18:05;27.02;;;14.73;;
43835;SDS011;39345;43.964;25.340;2023-02-11T12:28:28;27.52;;;14.40;;
43835;SDS011;39345;43.964;25.340;2023-02-11T12:36:07;24.48;;;13.73;;
43835;SDS011;39345;43.964;25.340;2023-02-11T12:44:32;23.85;;;13.25;;
43835;SDS011;39345;43.964;25.340;2023-02-11T12:56:54;24.85;;;12.23;;
43835;SDS011;39345;43.964;25.340;2023-02-11T13:01:58;23.15;;;12.45;;
43835;SDS011;39345;43.964;25.340;2023-02-11T13:04:28;23.40;;;12.15;;
43835;SDS011;39345;43.964;25.340;2023-02-11T13:07:04;19.48;;;11.75;;
43835;SDS011;39345;43.964;25.340;2023-02-11T13:09:47;23.65;;;12.88;;
43835;SDS011;39345;43.964;25.340;2023-02-11T13:12:17;23.15;;;12.30;;
43835;SDS011;39345;43.964;25.340;2023-02-11T13:15:05;26.90;;;13.85;;
43835;SDS011;39345;43.964;25.340;2023-02-11T13:18:16;23.10;;;12.52;;
43835;SDS011;39345;43.964;25.340;2023-02-11T13:23:18;28.30;;;13.85;;
43835;SDS011;39345;43.964;25.340;2023-02-11T13:25:49;23.83;;;13.63;;
43835;SDS011;39345;43.964;25.340;2023-02-11T13:28:22;21.25;;;13.65;;
43835;SDS011;39345;43.964;25.340;2023-02-11T13:30:52;22.00;;;12.77;;
43835;SDS011;39345;43.964;25.340;2023-02-11T13:33:40;24.70;;;13.48;;
43835;SDS011;39345;43.964;25.340;2023-02-11T13:36:12;24.75;;;14.05;;
43835;SDS011;39345;43.964;25.340;2023-02-11T13:38:40;23.25;;;13.10;;
43835;SDS011;39345;43.964;25.340;2023-02-11T13:41:30;25.48;;;15.02;;
43835;SDS011;39345;43.964;25.340;2023-02-11T13:44:03;28.58;;;14.50;;
43835;SDS011;39345;43.964;25.340;2023-02-11T13:46:51;25.73;;;15.15;;
43835;SDS011;39345;43.964;25.340;2023-02-11T13:49:21;31.35;;;17.13;;
43835;SDS011;39345;43.964;25.340;2023-02-11T13:51:49;30.65;;;17.10;;
43835;SDS011;39345;43.964;25.340;2023-02-11T13:54:19;26.95;;;15.07;;
43835;SDS011;39345;43.964;25.340;2023-02-11T13:57:13;27.15;;;15.32;;
43835;SDS011;39345;43.964;25.340;2023-02-11T14:02:04;24.75;;;14.93;;
43835;SDS011;39345;43.964;25.340;2023-02-11T14:05:40;27.20;;;15.45;;
43835;SDS011;39345;43.964;25.340;2023-02-11T14:16:08;28.60;;;15.57;;
43835;SDS011;39345;43.964;25.340;2023-02-11T14:29:12;29.83;;;16.13;;
43835;SDS011;39345;43.964;25.340;2023-02-11T14:36:58;28.37;;;16.60;;
43835;SDS011;39345;43.964;25.340;2023-02-11T14:42:23;32.20;;;17.50;;
43835;SDS011;39345;43.964;25.340;2023-02-11T14:44:54;35.10;;;20.23;;
43835;SDS011;39345;43.964;25.340;2023-02-11T14:47:27;39.95;;;21.38;;
43835;SDS011;39345;43.964;25.340;2023-02-11T14:49:55;33.17;;;18.38;;
43835;SDS011;39345;43.964;25.340;2023-02-11T14:52:33;34.30;;;18.52;;
43835;SDS011;39345;43.964;25.340;2023-02-11T14:57:28;29.40;;;16.08;;
43835;SDS011;39345;43.964;25.340;2023-02-11T14:59:59;30.73;;;16.45;;
43835;SDS011;39345;43.964;25.340;2023-02-11T15:02:34;34.40;;;16.58;;
43835;SDS011;39345;43.964;25.340;2023-02-11T15:05:15;31.33;;;17.88;;
43835;SDS011;39345;43.964;25.340;2023-02-11T15:07:48;33.97;;;17.63;;
43835;SDS011;39345;43.964;25.340;2023-02-11T15:10:17;33.17;;;18.58;;
43835;SDS011;39345;43.964;25.340;2023-02-11T15:12:45;39.65;;;20.13;;
43835;SDS011;39345;43.964;25.340;2023-02-11T15:15:14;36.28;;;19.45;;
43835;SDS011;39345;43.964;25.340;2023-02-11T15:17:42;40.30;;;22.23;;
43835;SDS011;39345;43.964;25.340;2023-02-11T15:20:21;40.08;;;21.00;;
43835;SDS011;39345;43.964;25.340;2023-02-11T15:22:53;37.05;;;20.55;;
43835;SDS011;39345;43.964;25.340;2023-02-11T15:25:21;39.60;;;21.23;;
43835;SDS011;39345;43.964;25.340;2023-02-11T15:27:50;40.83;;;22.08;;
43835;SDS011;39345;43.964;25.340;2023-02-11T15:32:49;40.42;;;21.70;;
43835;SDS011;39345;43.964;25.340;2023-02-11T15:35:17;46.60;;;22.05;;
43835;SDS011;39345;43.964;25.340;2023-02-11T15:37:47;43.22;;;21.45;;
43835;SDS011;39345;43.964;25.340;2023-02-11T15:40:17;47.28;;;23.80;;
43835;SDS011;39345;43.964;25.340;2023-02-11T15:42:52;46.50;;;23.23;;
43835;SDS011;39345;43.964;25.340;2023-02-11T15:48:08;42.22;;;23.33;;
43835;SDS011;39345;43.964;25.340;2023-02-11T15:50:36;41.08;;;22.38;;
43835;SDS011;39345;43.964;25.340;2023-02-11T15:55:40;39.38;;;22.17;;
43835;SDS011;39345;43.964;25.340;2023-02-11T15:58:08;44.05;;;22.45;;
43835;SDS011;39345;43.964;25.340;2023-02-11T16:00:37;43.55;;;22.50;;
43835;SDS011;39345;43.964;25.340;2023-02-11T16:03:24;48.58;;;24.70;;
43835;SDS011;39345;43.964;25.340;2023-02-11T16:05:54;54.40;;;26.48;;
43835;SDS011;39345;43.964;25.340;2023-02-11T16:08:23;49.65;;;25.40;;
43835;SDS011;39345;43.964;25.340;2023-02-11T16:10:54;40.28;;;22.10;;
43835;SDS011;39345;43.964;25.340;2023-02-11T16:13:24;41.88;;;21.88;;
43835;SDS011;39345;43.964;25.340;2023-02-11T16:15:57;41.83;;;23.50;;
43835;SDS011;39345;43.964;25.340;2023-02-11T16:18:35;44.15;;;24.13;;
43835;SDS011;39345;43.964;25.340;2023-02-11T16:21:07;41.50;;;21.92;;
43835;SDS011;39345;43.964;25.340;2023-02-11T16:23:40;44.22;;;24.65;;
43835;SDS011;39345;43.964;25.340;2023-02-11T16:26:21;82.82;;;39.95;;
43835;SDS011;39345;43.964;25.340;2023-02-11T16:28:50;137.70;;;56.35;;
43835;SDS011;39345;43.964;25.340;2023-02-11T16:31:18;81.60;;;36.00;;
43835;SDS011;39345;43.964;25.340;2023-02-11T16:33:46;72.97;;;33.28;;
43835;SDS011;39345;43.964;25.340;2023-02-11T16:36:14;55.22;;;27.67;;
43835;SDS011;39345;43.964;25.340;2023-02-11T16:38:42;49.53;;;25.70;;
43835;SDS011;39345;43.964;25.340;2023-02-11T16:41:10;44.92;;;24.52;;
43835;SDS011;39345;43.964;25.340;2023-02-11T16:43:38;54.88;;;29.15;;
43835;SDS011;39345;43.964;25.340;2023-02-11T16:46:05;47.45;;;25.23;;
43835;SDS011;39345;43.964;25.340;2023-02-11T16:48:34;45.85;;;24.95;;
43835;SDS011;39345;43.964;25.340;2023-02-11T16:51:03;53.10;;;27.77;;
43835;SDS011;39345;43.964;25.340;2023-02-11T16:53:34;41.10;;;20.98;;
43835;SDS011;39345;43.964;25.340;2023-02-11T16:56:02;40.60;;;20.95;;
43835;SDS011;39345;43.964;25.340;2023-02-11T16:58:29;38.92;;;19.92;;
43835;SDS011;39345;43.964;25.340;2023-02-11T17:00:57;35.05;;;18.83;;
43835;SDS011;39345;43.964;25.340;2023-02-11T17:03:24;36.70;;;19.52;;
43835;SDS011;39345;43.964;25.340;2023-02-11T17:05:55;38.85;;;19.80;;
43835;SDS011;39345;43.964;25.340;2023-02-11T17:08:23;36.55;;;19.25;;
43835;SDS011;39345;43.964;25.340;2023-02-11T17:10:50;34.47;;;19.33;;
43835;SDS011;39345;43.964;25.340;2023-02-11T17:13:20;35.40;;;19.27;;